Time;durP1;ratioP1;P1;durP2;ratioP2;P2;SDS_P1;SDS_P2;PMS_P1;PMS_P2;Temp;Humidity;BMP_temperature;BMP_pressure;BME280_temperature;BME280_humidity;BME280_pressure;Samples;Min_cycle;Max_cycle;Signal;HPM_P1;HPM_P2
2022/03/28 00:01:39;;;;;;;4.20;3.80;;;11.40;62.40;;;;;;934760;152;27307;-75
2022/03/28 00:04:06;;;;;;;4.20;3.80;;;11.40;62.40;;;;;;936120;151;27859;-74
2022/03/28 00:06:32;;;;;;;3.70;3.40;;;11.30;62.50;;;;;;935438;151;27306;-77
2022/03/28 00:08:59;;;;;;;4.27;3.87;;;11.30;62.40;;;;;;930321;151;27435;-74
2022/03/28 00:11:27;;;;;;;3.93;3.63;;;11.30;62.50;;;;;;922498;153;27363;-74
2022/03/28 00:13:52;;;;;;;4.10;3.77;;;11.20;62.50;;;;;;922125;153;27369;-74
2022/03/28 00:16:19;;;;;;;3.97;3.67;;;11.10;62.50;;;;;;923982;153;27295;-74
2022/03/28 00:18:45;;;;;;;5.00;4.50;;;11.10;62.80;;;;;;923780;153;27398;-77
2022/03/28 00:21:12;;;;;;;5.77;4.20;;;11.00;62.90;;;;;;924655;153;27398;-74
2022/03/28 00:23:38;;;;;;;4.67;4.23;;;11.00;63.20;;;;;;924152;152;27488;-75
2022/03/28 00:26:05;;;;;;;3.93;3.63;;;10.90;63.40;;;;;;924509;152;27453;-75
2022/03/28 00:28:32;;;;;;;3.90;3.60;;;10.90;63.60;;;;;;924293;153;27544;-74
2022/03/28 00:30:58;;;;;;;5.60;4.00;;;10.80;63.80;;;;;;924650;153;27453;-77
2022/03/28 00:33:25;;;;;;;4.43;4.03;;;10.80;63.90;;;;;;923798;153;27398;-74
2022/03/28 00:35:51;;;;;;;4.83;3.93;;;10.70;64.00;;;;;;923571;153;27333;-74
2022/03/28 00:38:18;;;;;;;4.43;4.03;;;10.70;64.20;;;;;;923022;153;27440;-74
2022/03/28 00:40:45;;;;;;;3.67;3.37;;;10.60;64.20;;;;;;924723;153;27319;-75
2022/03/28 00:43:11;;;;;;;4.83;4.20;;;10.50;64.10;;;;;;923122;153;27359;-75
2022/03/28 00:45:38;;;;;;;4.30;3.60;;;10.50;64.30;;;;;;923071;153;27382;-74
2022/03/28 00:48:04;;;;;;;4.30;3.90;;;10.50;64.60;;;;;;924241;153;27402;-74
2022/03/28 00:50:32;;;;;;;4.30;3.80;;;10.40;64.70;;;;;;923327;153;27438;-74
2022/03/28 00:52:58;;;;;;;4.53;4.13;;;10.40;64.70;;;;;;924537;153;27810;-75
2022/03/28 00:55:24;;;;;;;3.73;3.43;;;10.30;64.80;;;;;;923708;153;27358;-74
2022/03/28 00:57:51;;;;;;;5.00;4.43;;;10.30;64.90;;;;;;924938;153;27370;-74
2022/03/28 01:00:17;;;;;;;4.80;4.40;;;10.30;65.10;;;;;;923413;152;27347;-75
2022/03/28 01:02:44;;;;;;;4.50;4.10;;;10.20;65.40;;;;;;924541;153;27300;-74
2022/03/28 01:05:10;;;;;;;4.87;4.40;;;10.20;65.70;;;;;;923960;153;27292;-75
2022/03/28 01:07:40;;;;;;;4.77;4.37;;;10.20;65.80;;;;;;920638;152;27307;-76
2022/03/28 01:10:07;;;;;;;6.37;4.30;;;10.20;66.20;;;;;;918157;151;27790;-74
2022/03/28 01:12:34;;;;;;;5.87;4.27;;;10.20;66.20;;;;;;919350;153;27643;-76
2022/03/28 01:15:00;;;;;;;4.47;4.17;;;10.10;66.10;;;;;;921717;154;27319;-74
2022/03/28 01:20:11;;;;;;;5.70;4.70;;;10.10;66.30;;;;;;916545;155;27425;-76
2022/03/28 01:22:37;;;;;;;5.20;3.90;;;10.10;66.10;;;;;;938268;152;27360;-76
2022/03/28 01:25:04;;;;;;;5.10;4.60;;;10.10;66.40;;;;;;932113;151;27380;-74
2022/03/28 01:27:36;;;;;;;5.00;4.50;;;10.00;66.30;;;;;;921340;153;27439;-77
2022/03/28 01:30:00;;;;;;;4.87;4.03;;;10.00;66.50;;;;;;933706;151;27295;-75
2022/03/28 01:32:27;;;;;;;5.07;4.57;;;10.00;66.70;;;;;;934178;151;27439;-75
2022/03/28 01:34:53;;;;;;;4.77;4.37;;;10.00;66.70;;;;;;935234;151;27462;-74
2022/03/28 01:37:20;;;;;;;4.93;4.43;;;10.00;66.50;;;;;;937688;152;27269;-74
2022/03/28 01:39:46;;;;;;;6.73;5.87;;;9.90;67.00;;;;;;917650;154;27458;-74
2022/03/28 01:42:13;;;;;;;5.67;5.10;;;9.90;67.50;;;;;;925868;154;27416;-75
2022/03/28 01:44:39;;;;;;;5.10;4.60;;;9.90;67.80;;;;;;932419;152;27351;-77
2022/03/28 01:47:06;;;;;;;5.07;4.57;;;9.90;67.60;;;;;;925820;155;27387;-74
2022/03/28 01:49:33;;;;;;;4.53;4.13;;;9.90;67.60;;;;;;924949;154;27297;-74
2022/03/28 01:51:59;;;;;;;4.67;4.27;;;9.90;67.60;;;;;;925859;153;27356;-74
2022/03/28 01:54:26;;;;;;;4.50;4.10;;;9.90;67.60;;;;;;932643;151;27250;-76
2022/03/28 01:56:52;;;;;;;4.27;3.93;;;9.80;67.60;;;;;;938325;152;27438;-74
2022/03/28 01:59:19;;;;;;;4.53;4.13;;;9.80;67.50;;;;;;937954;152;27505;-74
2022/03/28 02:01:46;;;;;;;5.07;4.53;;;9.70;67.60;;;;;;938610;150;27369;-74
2022/03/28 02:04:13;;;;;;;5.23;4.67;;;9.70;67.70;;;;;;937531;152;27310;-74
2022/03/28 02:06:39;;;;;;;4.60;4.20;;;9.70;67.70;;;;;;931832;151;27272;-75
2022/03/28 02:09:05;;;;;;;5.07;4.57;;;9.60;67.60;;;;;;932185;151;27385;-77
2022/03/28 02:11:32;;;;;;;4.90;4.37;;;9.60;67.70;;;;;;930890;150;27453;-74
2022/03/28 02:13:58;;;;;;;6.20;4.00;;;9.50;67.60;;;;;;930736;152;27774;-74
2022/03/28 02:16:25;;;;;;;7.30;4.27;;;9.50;67.60;;;;;;930970;152;27323;-76
2022/03/28 02:18:52;;;;;;;5.47;4.93;;;9.50;67.80;;;;;;930996;152;27431;-75
2022/03/28 02:21:18;;;;;;;5.43;4.93;;;9.40;67.90;;;;;;931407;152;27409;-76
2022/03/28 02:23:45;;;;;;;4.70;4.30;;;9.30;67.90;;;;;;930910;150;27471;-74
2022/03/28 02:26:13;;;;;;;4.90;4.47;;;9.30;68.10;;;;;;929565;152;28875;-74
2022/03/28 02:28:38;;;;;;;4.93;4.50;;;9.20;68.10;;;;;;931064;150;27330;-74
2022/03/28 02:31:05;;;;;;;7.23;5.30;;;9.20;68.20;;;;;;928351;152;27448;-77
2022/03/28 02:33:31;;;;;;;4.53;4.13;;;9.20;68.40;;;;;;929084;152;27374;-74
2022/03/28 02:35:58;;;;;;;4.93;4.30;;;9.10;68.40;;;;;;930455;152;27354;-74
2022/03/28 02:38:24;;;;;;;4.87;4.37;;;9.10;68.50;;;;;;930349;152;27817;-75
2022/03/28 02:40:51;;;;;;;4.87;4.37;;;9.00;68.80;;;;;;930492;150;27408;-74
2022/03/28 02:43:19;;;;;;;5.10;4.70;;;9.00;68.80;;;;;;930141;152;27289;-74
2022/03/28 02:45:44;;;;;;;5.27;4.77;;;8.90;69.20;;;;;;929783;152;27401;-77
2022/03/28 02:48:11;;;;;;;4.53;4.13;;;8.90;69.50;;;;;;930846;152;27392;-74
2022/03/28 02:50:37;;;;;;;4.10;3.73;;;8.90;69.70;;;;;;929447;152;27311;-74
2022/03/28 02:53:04;;;;;;;4.83;4.20;;;8.90;69.70;;;;;;932033;152;27275;-77
2022/03/28 02:55:30;;;;;;;4.10;3.73;;;8.80;69.60;;;;;;931123;152;27289;-79
2022/03/28 02:57:57;;;;;;;4.87;4.37;;;8.80;69.70;;;;;;930256;152;27350;-79
2022/03/28 03:00:24;;;;;;;5.53;4.43;;;8.80;69.70;;;;;;931041;152;27463;-79
2022/03/28 03:02:51;;;;;;;5.17;4.43;;;8.80;69.90;;;;;;931007;152;29219;-80
2022/03/28 03:05:17;;;;;;;4.20;3.80;;;8.70;69.90;;;;;;931385;152;27322;-79
2022/03/28 03:07:43;;;;;;;4.77;4.37;;;8.70;69.90;;;;;;930047;152;27327;-79
2022/03/28 03:10:10;;;;;;;5.00;4.50;;;8.70;69.90;;;;;;931393;151;27417;-79
2022/03/28 03:12:37;;;;;;;4.60;4.20;;;8.70;70.10;;;;;;930968;152;27366;-80
2022/03/28 03:15:03;;;;;;;4.63;4.23;;;8.60;70.20;;;;;;929699;151;27971;-78
2022/03/28 03:17:30;;;;;;;4.23;3.83;;;8.60;70.20;;;;;;931482;152;27395;-77
2022/03/28 03:19:56;;;;;;;5.90;5.40;;;8.60;70.30;;;;;;929982;150;27379;-78
2022/03/28 03:22:23;;;;;;;5.07;4.60;;;8.60;70.30;;;;;;931590;152;27258;-77
2022/03/28 03:24:49;;;;;;;5.27;4.77;;;8.50;70.30;;;;;;932640;152;27361;-79
2022/03/28 03:27:16;;;;;;;5.63;4.77;;;8.50;70.40;;;;;;930306;150;27457;-80
2022/03/28 03:29:43;;;;;;;5.23;4.73;;;8.50;70.70;;;;;;930181;152;27364;-79
2022/03/28 03:32:10;;;;;;;4.70;4.30;;;8.50;70.70;;;;;;930101;152;28266;-79
2022/03/28 03:34:36;;;;;;;6.07;5.10;;;8.40;70.80;;;;;;931013;150;27302;-79
2022/03/28 03:37:02;;;;;;;5.83;5.13;;;8.40;70.80;;;;;;931298;152;27394;-79
2022/03/28 03:39:29;;;;;;;6.73;5.30;;;8.40;70.80;;;;;;931458;150;27451;-79
2022/03/28 03:41:56;;;;;;;5.43;4.90;;;8.30;70.90;;;;;;931152;149;27691;-79
2022/03/28 03:44:22;;;;;;;6.13;5.50;;;8.30;71.10;;;;;;930953;151;27294;-80
2022/03/28 03:46:49;;;;;;;5.07;4.57;;;8.30;71.00;;;;;;931087;152;27340;-77
2022/03/28 03:49:18;;;;;;;6.17;5.57;;;8.30;71.10;;;;;;931336;150;27421;-79
2022/03/28 03:51:44;;;;;;;5.33;4.73;;;8.20;71.10;;;;;;931505;151;27470;-79
2022/03/28 03:54:11;;;;;;;6.47;5.37;;;8.20;71.30;;;;;;929664;152;27919;-79
2022/03/28 03:56:38;;;;;;;5.73;5.23;;;8.20;71.40;;;;;;931804;149;27337;-79
2022/03/28 03:59:04;;;;;;;6.03;5.40;;;8.20;71.40;;;;;;931343;152;27429;-79
2022/03/28 04:01:31;;;;;;;7.17;5.37;;;8.10;71.40;;;;;;930898;151;27426;-79
2022/03/28 04:03:57;;;;;;;5.93;5.30;;;8.10;71.60;;;;;;931817;152;27315;-79
2022/03/28 04:06:24;;;;;;;5.77;5.27;;;8.10;71.80;;;;;;931180;152;28123;-79
2022/03/28 04:08:50;;;;;;;5.90;5.10;;;8.10;72.00;;;;;;930819;152;27313;-79
2022/03/28 04:11:17;;;;;;;6.33;5.27;;;8.10;72.10;;;;;;934459;150;27477;-79
2022/03/28 04:13:44;;;;;;;5.30;4.80;;;8.00;72.10;;;;;;937168;150;27368;-79
2022/03/28 04:16:11;;;;;;;5.37;4.87;;;8.00;72.10;;;;;;938363;150;27364;-79
2022/03/28 04:18:37;;;;;;;5.50;5.00;;;8.00;72.10;;;;;;939163;150;27454;-79
2022/03/28 04:21:03;;;;;;;5.17;4.67;;;8.00;72.20;;;;;;937695;150;27344;-79
2022/03/28 04:23:30;;;;;;;5.60;5.03;;;7.90;72.20;;;;;;937777;149;27844;-79
2022/03/28 04:25:56;;;;;;;4.80;4.30;;;7.90;72.20;;;;;;940744;148;27450;-79
2022/03/28 04:28:23;;;;;;;4.43;4.03;;;7.90;72.30;;;;;;937759;150;27359;-79
2022/03/28 04:30:52;;;;;;;5.27;4.77;;;7.80;72.20;;;;;;937704;149;27353;-79
2022/03/28 04:33:19;;;;;;;5.10;4.67;;;7.80;72.40;;;;;;937531;150;27415;-79
2022/03/28 04:35:46;;;;;;;6.93;5.93;;;7.80;72.60;;;;;;938959;150;27397;-80
2022/03/28 04:38:12;;;;;;;5.97;5.37;;;7.70;72.70;;;;;;938283;150;28077;-79
2022/03/28 04:40:39;;;;;;;5.63;5.03;;;7.70;72.90;;;;;;937426;150;27278;-79
2022/03/28 04:43:06;;;;;;;6.23;5.40;;;7.70;73.00;;;;;;939193;150;27305;-79
2022/03/28 04:45:32;;;;;;;8.33;6.73;;;7.70;73.20;;;;;;936226;150;27394;-79
2022/03/28 04:47:59;;;;;;;7.03;6.33;;;7.70;73.30;;;;;;939100;150;27380;-80
2022/03/28 04:50:25;;;;;;;5.90;5.33;;;7.70;73.50;;;;;;936189;150;28026;-80
2022/03/28 04:52:52;;;;;;;5.23;4.73;;;7.70;73.60;;;;;;936767;150;27369;-79
2022/03/28 04:55:18;;;;;;;6.30;5.70;;;7.70;73.60;;;;;;937916;148;27440;-79
2022/03/28 04:57:45;;;;;;;5.83;5.27;;;7.70;73.60;;;;;;936033;150;27426;-79
2022/03/28 05:00:12;;;;;;;7.30;5.67;;;7.60;73.50;;;;;;938348;150;27394;-79
2022/03/28 05:02:38;;;;;;;5.77;5.17;;;7.60;73.50;;;;;;938302;150;27366;-79
2022/03/28 05:05:05;;;;;;;5.70;5.10;;;7.60;73.40;;;;;;939317;148;27308;-79
2022/03/28 05:07:31;;;;;;;6.83;5.20;;;7.60;73.50;;;;;;938574;150;27336;-79
2022/03/28 05:09:58;;;;;;;6.67;6.00;;;7.60;73.50;;;;;;937763;149;27347;-79
2022/03/28 05:12:25;;;;;;;6.97;6.27;;;7.60;73.70;;;;;;934394;150;27402;-77
2022/03/28 05:14:51;;;;;;;6.50;5.80;;;7.60;73.90;;;;;;931953;152;27397;-78
2022/03/28 05:17:21;;;;;;;5.90;5.30;;;7.60;74.00;;;;;;931723;152;27423;-78
2022/03/28 05:19:47;;;;;;;6.27;5.50;;;7.60;74.10;;;;;;931458;151;27403;-77
2022/03/28 05:22:14;;;;;;;5.37;4.87;;;7.60;74.20;;;;;;931616;152;27440;-77
2022/03/28 05:24:40;;;;;;;5.23;4.63;;;7.60;74.20;;;;;;931976;151;28033;-78
2022/03/28 05:27:07;;;;;;;7.67;5.30;;;7.60;74.30;;;;;;931826;152;27449;-77
2022/03/28 05:29:33;;;;;;;7.27;5.77;;;7.60;74.40;;;;;;931602;152;27307;-78
2022/03/28 05:32:01;;;;;;;6.60;5.97;;;7.70;74.70;;;;;;932037;152;27274;-79
2022/03/28 05:34:28;;;;;;;6.40;5.70;;;7.70;75.10;;;;;;931633;152;27375;-80
2022/03/28 05:36:53;;;;;;;6.10;5.50;;;7.80;75.50;;;;;;931686;151;27437;-79
2022/03/28 05:39:20;;;;;;;6.77;6.07;;;8.00;76.20;;;;;;931661;151;27426;-80
2022/03/28 05:41:46;;;;;;;6.87;6.27;;;8.10;76.70;;;;;;932287;151;27841;-79
2022/03/28 05:44:13;;;;;;;7.57;6.73;;;8.40;77.30;;;;;;931540;152;27423;-78
2022/03/28 05:46:40;;;;;;;7.70;6.33;;;8.70;77.80;;;;;;932352;150;27426;-78
2022/03/28 05:49:06;;;;;;;8.70;6.47;;;8.90;78.00;;;;;;932191;151;27359;-77
2022/03/28 05:51:33;;;;;;;7.13;6.33;;;9.30;78.10;;;;;;931309;152;27353;-77
2022/03/28 05:53:59;;;;;;;7.60;6.30;;;9.70;78.30;;;;;;931815;152;27426;-78
2022/03/28 05:56:26;;;;;;;7.70;6.90;;;10.10;78.40;;;;;;931487;152;27326;-78
2022/03/28 05:58:53;;;;;;;8.20;6.87;;;10.50;78.00;;;;;;931811;151;27339;-77
2022/03/28 06:01:19;;;;;;;8.93;6.47;;;11.00;77.80;;;;;;932350;151;27314;-76
2022/03/28 06:03:46;;;;;;;7.43;6.67;;;11.40;77.50;;;;;;933350;151;27398;-77
2022/03/28 06:06:13;;;;;;;7.93;6.60;;;11.90;77.10;;;;;;932498;151;27681;-76
2022/03/28 06:08:39;;;;;;;7.10;6.40;;;12.30;76.60;;;;;;933530;151;27467;-77
2022/03/28 06:11:06;;;;;;;7.50;6.77;;;12.80;76.10;;;;;;931567;151;27311;-78
2022/03/28 06:13:32;;;;;;;6.90;6.30;;;13.30;75.70;;;;;;931137;152;27510;-77
2022/03/28 06:15:59;;;;;;;8.70;7.33;;;13.80;75.00;;;;;;932020;151;27865;-77
2022/03/28 06:18:25;;;;;;;8.43;6.17;;;14.20;74.10;;;;;;929570;151;27285;-79
2022/03/28 06:20:52;;;;;;;8.07;7.20;;;14.70;73.30;;;;;;932266;152;27325;-77
2022/03/28 06:23:18;;;;;;;6.90;6.30;;;15.10;72.30;;;;;;930168;151;27400;-77
2022/03/28 06:25:45;;;;;;;7.33;5.80;;;15.60;71.20;;;;;;929548;152;27430;-77
2022/03/28 06:28:12;;;;;;;7.15;6.45;;;16.10;70.60;;;;;;931566;150;27355;-78
2022/03/28 06:30:38;;;;;;;8.95;6.20;;;16.50;70.00;;;;;;929865;151;27399;-78
2022/03/28 06:33:05;;;;;;;6.37;5.78;;;17.10;69.20;;;;;;931891;151;27501;-78
2022/03/28 06:35:31;;;;;;;7.53;5.62;;;17.60;68.30;;;;;;932575;152;27476;-78
2022/03/28 06:37:58;;;;;;;6.60;5.90;;;18.10;67.50;;;;;;931496;150;27783;-78
2022/03/28 06:40:25;;;;;;;11.15;6.08;;;18.70;66.70;;;;;;931000;150;27413;-78
2022/03/28 06:42:51;;;;;;;6.33;5.78;;;19.30;65.80;;;;;;930191;152;27334;-78
2022/03/28 06:45:18;;;;;;;8.98;5.30;;;19.90;65.00;;;;;;929884;152;27283;-78
2022/03/28 06:47:50;;;;;;;7.35;5.42;;;20.40;64.00;;;;;;930655;152;27488;-78
2022/03/28 06:50:11;;;;;;;5.95;5.45;;;21.00;62.80;;;;;;931247;152;27369;-78
2022/03/28 06:52:37;;;;;;;8.65;4.80;;;21.60;61.60;;;;;;932254;151;27392;-78
2022/03/28 06:55:05;;;;;;;5.67;4.95;;;22.10;60.40;;;;;;930581;152;27298;-79
2022/03/28 06:57:31;;;;;;;7.15;5.12;;;22.60;59.40;;;;;;930195;152;27368;-78
2022/03/28 06:59:57;;;;;;;5.90;5.30;;;23.00;58.50;;;;;;928761;152;27384;-78
2022/03/28 07:02:24;;;;;;;5.78;5.20;;;23.50;57.70;;;;;;929432;152;27375;-79
2022/03/28 07:04:50;;;;;;;4.90;4.50;;;23.90;56.70;;;;;;930788;152;27309;-78
2022/03/28 07:07:17;;;;;;;5.42;4.95;;;24.30;56.00;;;;;;932007;150;27401;-79
2022/03/28 07:09:44;;;;;;;5.78;5.28;;;24.60;55.50;;;;;;929453;152;27449;-79
2022/03/28 07:12:10;;;;;;;5.45;4.75;;;25.00;54.90;;;;;;931084;150;27473;-79
2022/03/28 07:14:37;;;;;;;5.12;4.70;;;25.40;54.40;;;;;;931140;151;29428;-79
2022/03/28 07:17:03;;;;;;;5.65;5.08;;;25.80;53.80;;;;;;931280;152;27415;-79
2022/03/28 07:19:30;;;;;;;5.17;4.72;;;26.10;53.20;;;;;;929809;152;27315;-79
2022/03/28 07:21:57;;;;;;;7.65;5.28;;;26.50;52.70;;;;;;929924;152;27511;-79
2022/03/28 07:24:23;;;;;;;6.85;5.10;;;26.90;52.30;;;;;;930566;152;27365;-79
2022/03/28 07:26:50;;;;;;;5.72;5.17;;;27.30;51.70;;;;;;930495;152;27403;-79
2022/03/28 07:29:17;;;;;;;5.25;4.85;;;27.50;51.10;;;;;;929026;151;27368;-79
2022/03/28 07:31:46;;;;;;;6.08;5.33;;;27.80;50.50;;;;;;930168;151;27393;-79
2022/03/28 07:34:30;;;;;;;5.70;5.30;;;28.20;50.10;;;;;;929658;149;27361;-79
2022/03/28 07:36:57;;;;;;;5.47;5.00;;;28.50;49.60;;;;;;929965;152;27913;-79
2022/03/28 07:39:23;;;;;;;5.50;4.95;;;28.80;49.10;;;;;;930280;151;27322;-79
2022/03/28 07:41:50;;;;;;;6.30;5.60;;;29.00;48.50;;;;;;929483;150;27384;-79
2022/03/28 07:44:16;;;;;;;6.00;5.50;;;29.30;48.20;;;;;;929195;150;27359;-79
2022/03/28 07:46:44;;;;;;;5.72;5.17;;;29.60;47.90;;;;;;929563;151;27437;-79
2022/03/28 07:49:10;;;;;;;5.78;4.85;;;29.90;47.50;;;;;;930820;152;27440;-79
2022/03/28 07:51:36;;;;;;;5.75;5.25;;;30.20;46.90;;;;;;930424;152;27471;-79
2022/03/28 07:54:03;;;;;;;5.70;5.20;;;30.40;46.50;;;;;;930290;151;27344;-80
2022/03/28 07:56:31;;;;;;;6.00;5.22;;;30.80;46.30;;;;;;930875;151;27363;-79
2022/03/28 07:58:56;;;;;;;5.28;4.87;;;31.20;45.90;;;;;;929358;151;27341;-79
2022/03/28 08:01:23;;;;;;;5.72;5.22;;;31.40;45.40;;;;;;929403;152;27375;-79
2022/03/28 08:03:49;;;;;;;5.55;4.60;;;31.70;44.90;;;;;;929535;152;27348;-79
2022/03/28 08:06:16;;;;;;;5.72;5.22;;;32.10;44.60;;;;;;930494;151;27276;-79
2022/03/28 08:08:42;;;;;;;5.87;4.92;;;32.30;44.10;;;;;;932142;151;27373;-79
2022/03/28 08:11:10;;;;;;;5.62;5.15;;;32.60;43.60;;;;;;930915;151;27350;-79
2022/03/28 08:13:36;;;;;;;5.60;5.15;;;32.90;43.10;;;;;;928945;151;27434;-80
2022/03/28 08:16:02;;;;;;;5.03;4.60;;;33.10;42.60;;;;;;931555;152;27442;-80
2022/03/28 08:18:29;;;;;;;5.37;4.97;;;33.30;42.20;;;;;;931433;151;27493;-79
2022/03/28 08:20:55;;;;;;;5.47;4.80;;;33.50;41.80;;;;;;931301;151;27327;-80
2022/03/28 08:23:22;;;;;;;4.97;4.58;;;33.70;41.40;;;;;;931745;151;27351;-79
2022/03/28 08:25:48;;;;;;;5.37;4.97;;;33.90;41.00;;;;;;932067;151;27434;-80
2022/03/28 08:28:15;;;;;;;4.87;4.42;;;34.10;40.60;;;;;;931755;152;27401;-79
2022/03/28 08:30:42;;;;;;;5.10;4.70;;;34.30;40.50;;;;;;931252;151;27416;-80
2022/03/28 08:33:09;;;;;;;4.92;4.62;;;34.50;40.20;;;;;;932378;152;27306;-80
2022/03/28 08:35:35;;;;;;;5.22;4.80;;;34.70;39.70;;;;;;931426;152;27280;-80
2022/03/28 08:38:01;;;;;;;5.37;4.83;;;35.00;39.60;;;;;;931972;151;26254;-80
2022/03/28 08:40:28;;;;;;;5.20;4.80;;;35.20;39.20;;;;;;931166;151;28933;-80
2022/03/28 08:42:55;;;;;;;4.78;4.37;;;35.50;38.70;;;;;;931384;152;26232;-80
2022/03/28 08:45:21;;;;;;;4.95;4.45;;;35.70;38.10;;;;;;932094;152;26325;-80
2022/03/28 08:47:48;;;;;;;4.80;4.40;;;35.90;37.90;;;;;;932584;151;26240;-80
2022/03/28 08:50:15;;;;;;;4.92;4.53;;;36.10;37.70;;;;;;930979;152;26385;-80
2022/03/28 08:52:41;;;;;;;5.30;4.58;;;36.30;37.20;;;;;;932235;152;26305;-80
2022/03/28 08:55:08;;;;;;;5.10;4.50;;;36.40;36.90;;;;;;931876;152;26252;-80
2022/03/28 08:57:34;;;;;;;4.65;4.28;;;36.60;36.60;;;;;;931493;151;26543;-80
2022/03/28 09:00:02;;;;;;;4.72;4.33;;;36.70;36.30;;;;;;931461;151;26241;-80
2022/03/28 09:02:46;;;;;;;4.45;4.03;;;36.90;36.00;;;;;;931368;151;27506;-80
2022/03/28 09:05:12;;;;;;;4.65;4.35;;;37.00;35.60;;;;;;931543;152;26736;-80
2022/03/28 09:07:39;;;;;;;4.22;3.92;;;37.20;35.50;;;;;;931129;152;26312;-80
2022/03/28 09:10:05;;;;;;;5.03;3.83;;;37.30;35.20;;;;;;931457;152;27436;-80
2022/03/28 09:12:33;;;;;;;4.95;4.53;;;37.40;34.80;;;;;;931437;152;26233;-80
2022/03/28 09:14:58;;;;;;;4.78;4.47;;;37.50;34.50;;;;;;931566;150;26433;-80
2022/03/28 09:17:25;;;;;;;4.37;4.08;;;37.60;34.20;;;;;;930906;151;26540;-80
2022/03/28 09:19:55;;;;;;;4.60;4.30;;;37.60;33.80;;;;;;931803;151;26249;-80
2022/03/28 09:22:27;;;;;;;4.75;4.37;;;37.60;33.70;;;;;;931422;151;26406;-80
2022/03/28 09:24:53;;;;;;;4.53;4.12;;;37.60;33.60;;;;;;932032;152;26372;-80
2022/03/28 09:27:20;;;;;;;4.90;4.50;;;37.60;33.70;;;;;;930811;151;27499;-80
2022/03/28 09:30:01;;;;;;;4.53;4.22;;;37.50;33.40;;;;;;931461;152;26389;-80
2022/03/28 09:32:28;;;;;;;5.45;4.28;;;37.50;33.30;;;;;;931360;152;26224;-80
2022/03/28 09:35:13;;;;;;;4.97;4.58;;;37.50;33.10;;;;;;931178;152;26385;-80
2022/03/28 09:38:04;;;;;;;4.55;4.15;;;37.50;32.70;;;;;;931441;151;26714;-80
2022/03/28 09:40:33;;;;;;;4.95;4.55;;;37.40;32.60;;;;;;931602;151;26407;-80
2022/03/28 09:42:59;;;;;;;4.80;4.45;;;37.30;32.50;;;;;;931615;152;26238;-80
2022/03/28 09:45:32;;;;;;;5.87;4.60;;;37.10;32.20;;;;;;931443;152;27312;-80
2022/03/28 09:48:01;;;;;;;5.47;5.08;;;36.90;31.90;;;;;;931686;152;26217;-80
2022/03/28 09:50:30;;;;;;;4.85;4.45;;;36.60;32.00;;;;;;931684;152;27375;-80
2022/03/28 09:52:57;;;;;;;5.20;4.78;;;36.40;32.10;;;;;;931561;152;27453;-80
2022/03/28 09:55:23;;;;;;;5.67;5.12;;;36.10;32.10;;;;;;930293;152;26329;-80
2022/03/28 09:57:50;;;;;;;5.47;4.97;;;35.80;32.20;;;;;;931945;152;26348;-80
2022/03/28 10:00:19;;;;;;;5.15;4.75;;;35.50;32.20;;;;;;931278;151;27364;-80
2022/03/28 10:02:43;;;;;;;5.95;5.22;;;35.20;32.20;;;;;;930512;152;27356;-80
2022/03/28 10:05:10;;;;;;;6.65;5.37;;;34.80;32.20;;;;;;931602;152;27461;-80
2022/03/28 10:07:36;;;;;;;5.90;5.40;;;34.50;32.30;;;;;;931387;152;27304;-80
2022/03/28 10:10:03;;;;;;;5.95;5.30;;;34.10;32.30;;;;;;932678;151;27314;-80
2022/03/28 10:12:30;;;;;;;6.25;5.42;;;33.70;32.50;;;;;;931973;151;27373;-80
2022/03/28 10:15:00;;;;;;;5.97;5.17;;;33.40;32.60;;;;;;931498;152;27391;-80
2022/03/28 10:17:26;;;;;;;6.53;5.42;;;33.10;32.80;;;;;;931570;152;27328;-80
2022/03/28 10:19:52;;;;;;;7.67;5.75;;;32.80;32.90;;;;;;930007;151;27693;-80
2022/03/28 10:22:30;;;;;;;9.95;5.72;;;32.50;33.00;;;;;;931226;152;27398;-80
2022/03/28 10:24:57;;;;;;;7.00;5.83;;;32.10;33.00;;;;;;925991;152;27441;-80
2022/03/28 10:27:24;;;;;;;6.40;5.87;;;31.80;33.30;;;;;;931530;152;27421;-80
2022/03/28 10:29:52;;;;;;;5.78;5.28;;;31.50;33.40;;;;;;932324;151;27350;-80
2022/03/28 10:32:17;;;;;;;8.83;5.50;;;31.10;33.50;;;;;;929247;152;27486;-80
2022/03/28 10:35:01;;;;;;;7.08;6.25;;;30.80;33.70;;;;;;929963;152;27718;-80
2022/03/28 10:37:39;;;;;;;6.55;5.15;;;30.50;33.50;;;;;;930156;152;27437;-80
2022/03/28 10:40:27;;;;;;;5.97;5.47;;;30.30;34.30;;;;;;931159;152;27411;-80
2022/03/28 10:43:07;;;;;;;6.22;5.67;;;30.00;34.40;;;;;;929380;152;27389;-80
2022/03/28 10:45:32;;;;;;;5.62;5.12;;;29.70;34.80;;;;;;930515;152;27476;-80
2022/03/28 10:47:59;;;;;;;6.35;5.85;;;29.40;34.80;;;;;;924445;152;28581;-80
2022/03/28 10:50:37;;;;;;;7.72;7.08;;;29.20;34.90;;;;;;930438;152;27413;-80
2022/03/28 10:53:09;;;;;;;7.03;5.85;;;29.00;35.00;;;;;;930845;150;27340;-80
2022/03/28 10:55:42;;;;;;;8.10;5.87;;;28.80;35.30;;;;;;931198;152;27462;-80
2022/03/28 10:58:21;;;;;;;6.28;5.67;;;28.50;35.40;;;;;;930199;152;27704;-80
2022/03/28 11:01:06;;;;;;;6.72;6.20;;;28.30;35.60;;;;;;930938;152;27397;-80
2022/03/28 11:03:36;;;;;;;6.33;5.83;;;28.10;36.10;;;;;;930370;152;27299;-80
2022/03/28 11:06:02;;;;;;;7.60;6.62;;;27.90;36.00;;;;;;932170;151;27888;-80
2022/03/28 11:08:36;;;;;;;6.72;6.12;;;27.80;36.30;;;;;;931623;152;27333;-80
2022/03/28 11:11:20;;;;;;;5.90;5.30;;;27.60;36.40;;;;;;930745;152;27400;-80
2022/03/28 11:14:03;;;;;;;6.05;5.50;;;27.50;36.50;;;;;;930495;152;27488;-80
2022/03/28 11:16:55;;;;;;;5.95;5.37;;;27.40;36.40;;;;;;926958;152;27403;-80
2022/03/28 11:19:21;;;;;;;8.23;6.28;;;27.20;36.30;;;;;;929070;150;27295;-80
2022/03/28 11:22:03;;;;;;;6.67;6.05;;;27.10;36.30;;;;;;929723;152;27409;-80
2022/03/28 11:24:42;;;;;;;7.05;6.30;;;27.00;36.60;;;;;;930500;152;27938;-80
2022/03/28 11:27:11;;;;;;;6.12;5.35;;;26.90;36.70;;;;;;930820;152;27419;-80
2022/03/28 11:29:38;;;;;;;5.42;4.92;;;26.80;36.70;;;;;;929991;152;27301;-80
2022/03/28 11:32:04;;;;;;;7.20;5.62;;;26.80;36.80;;;;;;930267;152;27307;-80
2022/03/28 11:34:31;;;;;;;6.28;5.17;;;26.70;36.50;;;;;;928803;152;27347;-80
2022/03/28 11:36:58;;;;;;;5.20;4.70;;;26.60;36.30;;;;;;930923;152;27490;-80
2022/03/28 11:39:26;;;;;;;5.97;4.67;;;26.60;36.20;;;;;;931718;152;27445;-80
2022/03/28 11:41:51;;;;;;;6.00;5.40;;;26.50;36.00;;;;;;930175;151;27351;-80
2022/03/28 11:44:17;;;;;;;5.55;4.97;;;26.40;36.00;;;;;;930325;152;27347;-80
2022/03/28 11:46:44;;;;;;;6.80;5.30;;;26.30;36.10;;;;;;931110;150;27345;-80
2022/03/28 11:49:11;;;;;;;5.47;4.97;;;26.20;36.20;;;;;;931052;152;27343;-80
2022/03/28 11:51:37;;;;;;;5.67;5.17;;;26.10;36.20;;;;;;930860;151;27341;-80
2022/03/28 11:54:04;;;;;;;4.92;4.50;;;26.00;36.20;;;;;;931059;151;27271;-80
2022/03/28 11:56:30;;;;;;;6.10;5.03;;;25.90;36.30;;;;;;930683;151;27347;-80
2022/03/28 11:59:05;;;;;;;5.78;4.80;;;25.80;36.30;;;;;;931170;152;27416;-80
2022/03/28 12:01:32;;;;;;;5.12;4.62;;;25.70;36.00;;;;;;929624;151;27444;-80
2022/03/28 12:03:59;;;;;;;5.28;4.62;;;25.70;35.80;;;;;;929614;152;27476;-80
2022/03/28 12:06:28;;;;;;;6.60;5.30;;;25.60;35.70;;;;;;928445;151;27356;-79
2022/03/28 12:08:55;;;;;;;5.95;4.97;;;25.50;35.60;;;;;;929974;152;27348;-80
2022/03/28 12:11:22;;;;;;;5.40;4.83;;;25.40;35.70;;;;;;930848;151;27350;-80
2022/03/28 12:13:48;;;;;;;4.72;3.70;;;25.30;35.70;;;;;;929335;150;27376;-80
2022/03/28 12:16:15;;;;;;;4.47;4.08;;;25.20;35.40;;;;;;931575;150;28624;-80
2022/03/28 12:18:42;;;;;;;5.00;3.60;;;25.20;35.00;;;;;;937322;150;27349;-80
2022/03/28 12:21:08;;;;;;;5.83;4.20;;;25.20;34.90;;;;;;937395;150;27652;-80
2022/03/28 12:23:34;;;;;;;5.10;4.70;;;25.10;34.70;;;;;;941717;150;27274;-79
2022/03/28 12:26:05;;;;;;;5.12;4.55;;;25.00;34.70;;;;;;939447;146;27357;-79
2022/03/28 12:28:36;;;;;;;5.60;5.00;;;25.00;34.60;;;;;;941587;148;27503;-79
2022/03/28 12:31:03;;;;;;;5.03;4.53;;;24.90;34.20;;;;;;938353;150;27338;-79
2022/03/28 12:33:29;;;;;;;7.55;4.75;;;24.90;34.30;;;;;;937135;150;27371;-80
2022/03/28 12:36:01;;;;;;;4.97;4.30;;;24.90;34.30;;;;;;938942;150;27362;-80
2022/03/28 12:38:37;;;;;;;4.70;4.12;;;24.80;34.30;;;;;;937770;150;27343;-80
2022/03/28 12:41:05;;;;;;;6.70;4.10;;;24.70;34.30;;;;;;939974;150;27348;-80
2022/03/28 12:43:30;;;;;;;4.67;3.87;;;24.70;34.50;;;;;;938071;150;27301;-80
2022/03/28 12:45:57;;;;;;;5.53;4.80;;;24.70;34.60;;;;;;940057;150;27458;-80
2022/03/28 12:48:23;;;;;;;4.80;3.85;;;24.70;34.70;;;;;;937770;150;27382;-80
2022/03/28 12:50:55;;;;;;;4.65;4.25;;;24.70;34.70;;;;;;936811;149;27364;-80
2022/03/28 12:53:25;;;;;;;4.83;4.42;;;24.70;34.80;;;;;;938936;150;27307;-80
2022/03/28 12:55:51;;;;;;;5.25;4.60;;;24.70;34.70;;;;;;939331;150;27827;-80